Time;durP1;ratioP1;P1;durP2;ratioP2;P2;SDS_P1;SDS_P2;PMS_P1;PMS_P2;Temp;Humidity;BMP_temperature;BMP_pressure;BME280_temperature;BME280_humidity;BME280_pressure;Samples;Min_cycle;Max_cycle;Signal;HPM_P1;HPM_P2
2022/09/12 07:10:39;;;;;;;;;17.00;15.67;;;;;16.94;69.91;100583.34;5154708;27;45574;-59
2022/09/12 07:13:05;;;;;;;;;14.67;14.00;;;;;17.06;69.94;100589.69;5126787;27;45488;-60
2022/09/12 07:15:30;;;;;;;;;13.67;12.00;;;;;17.21;69.51;100596.72;5113355;27;45504;-60
2022/09/12 07:17:55;;;;;;;;;15.67;15.67;;;;;17.38;69.48;100591.19;5134006;27;45432;-60
2022/09/12 07:20:21;;;;;;;;;15.33;14.33;;;;;17.54;69.23;100592.84;5133263;27;56570;-61
2022/09/12 07:22:47;;;;;;;;;13.33;13.33;;;;;17.69;67.67;100599.84;5114908;27;45466;-61
2022/09/12 07:25:12;;;;;;;;;13.67;11.67;;;;;17.83;67.75;100593.66;5115043;27;45468;-60
2022/09/12 07:27:37;;;;;;;;;10.67;10.67;;;;;17.94;67.50;100587.63;5133530;27;45624;-60
2022/09/12 07:30:05;;;;;;;;;14.33;14.33;;;;;18.04;66.95;100584.25;5133410;27;48662;-60
2022/09/12 07:32:30;;;;;;;;;17.33;16.33;;;;;18.14;67.01;100588.97;5133738;27;45380;-60
2022/09/12 07:34:55;;;;;;;;;14.33;12.33;;;;;17.97;66.23;100550.16;5133688;27;45364;-60
2022/09/12 07:37:21;;;;;;;;;13.33;13.33;;;;;18.28;66.62;100581.75;5134173;27;45409;-60
2022/09/12 07:39:46;;;;;;;;;14.33;13.00;;;;;18.39;65.98;100591.66;5133460;27;45654;-60
2022/09/12 07:42:12;;;;;;;;;12.00;12.00;;;;;18.45;65.81;100585.06;5133420;27;45418;-60
2022/09/12 07:44:37;;;;;;;;;10.67;10.67;;;;;18.46;65.92;100578.78;5133449;27;45440;-60
2022/09/12 07:47:02;;;;;;;;;16.33;14.33;;;;;18.61;65.49;100592.84;5133398;27;45553;-60
2022/09/12 07:49:29;;;;;;;;;14.00;14.00;;;;;18.61;64.81;100577.72;5132168;27;45448;-60
2022/09/12 07:51:55;;;;;;;;;13.00;13.00;;;;;18.66;64.49;100580.06;5132819;27;45437;-60
2022/09/12 07:54:20;;;;;;;;;18.67;16.00;;;;;18.71;64.57;100593.94;5133139;27;45476;-60
2022/09/12 07:56:45;;;;;;;;;12.33;11.67;;;;;18.77;63.92;100591.72;5133186;27;45424;-59
2022/09/12 07:59:11;;;;;;;;;11.67;11.67;;;;;18.82;64.05;100587.88;5132989;27;45524;-60
2022/09/12 08:01:36;;;;;;;;;13.67;12.33;;;;;18.85;64.48;100585.00;5133103;27;45446;-60
2022/09/12 08:04:03;;;;;;;;;14.67;14.67;;;;;18.86;64.33;100586.69;5133100;27;45453;-60
2022/09/12 08:06:32;;;;;;;;;14.00;13.33;;;;;18.94;63.70;100595.88;5131131;27;45526;-60
2022/09/12 08:08:58;;;;;;;;;12.67;11.67;;;;;18.93;64.14;100577.31;5111852;27;46106;-60
2022/09/12 08:11:27;;;;;;;;;9.33;9.33;;;;;19.00;63.88;100580.41;5112244;27;45442;-60
2022/09/12 08:13:54;;;;;;;;;13.00;11.00;;;;;19.08;63.63;100589.56;5112194;27;45451;-60
2022/09/12 08:16:21;;;;;;;;;11.00;11.00;;;;;19.10;63.29;100573.44;5093646;27;45401;-60
2022/09/12 08:18:47;;;;;;;;;12.00;11.67;;;;;19.17;63.09;100580.06;5111885;27;45760;-60
2022/09/12 08:21:19;;;;;;;;;8.00;8.00;;;;;19.16;62.97;100576.53;5102750;27;45424;-61
2022/09/12 08:23:44;;;;;;;;;7.33;7.33;;;;;19.27;62.81;100585.59;5098627;27;45481;-60
2022/09/12 08:26:11;;;;;;;;;12.33;12.33;;;;;19.32;62.92;100589.63;5098119;27;45566;-60
2022/09/12 08:28:40;;;;;;;;;11.33;10.67;;;;;19.37;62.37;100581.25;5097904;27;46215;-60
2022/09/12 08:31:09;;;;;;;;;13.00;13.00;;;;;19.40;62.29;100578.41;5098072;27;45456;-60
2022/09/12 08:33:34;;;;;;;;;12.67;12.67;;;;;19.48;61.83;100585.81;5098339;27;45333;-60
2022/09/12 08:36:06;;;;;;;;;10.33;10.33;;;;;19.54;61.77;100588.06;5098320;27;45579;-60
2022/09/12 08:38:33;;;;;;;;;10.00;9.67;;;;;19.60;61.73;100585.78;5098513;27;45471;-60
2022/09/12 08:41:08;;;;;;;;;16.67;14.67;;;;;19.58;61.16;100571.69;5098112;27;45375;-60
2022/09/12 08:43:42;;;;;;;;;20.67;16.67;;;;;19.67;62.13;100580.06;5097980;27;45405;-60
2022/09/12 08:46:34;;;;;;;;;11.00;11.00;;;;;19.62;62.38;100570.53;5098131;27;45505;-60
2022/09/12 08:49:02;;;;;;;;;8.00;8.00;;;;;19.78;61.63;100586.28;5097078;27;46243;-61
2022/09/12 08:51:32;;;;;;;;;10.67;10.00;;;;;19.81;61.43;100588.72;5097607;27;45451;-60
2022/09/12 08:54:00;;;;;;;;;9.75;9.75;;;;;19.86;61.08;100597.25;5097991;27;45461;-60
2022/09/12 08:56:31;;;;;;;;;10.50;8.00;;;;;19.91;61.11;100590.69;5097805;27;45644;-60
2022/09/12 08:58:56;;;;;;;;;9.67;8.00;;;;;19.95;60.72;100584.19;5097615;27;46138;-60
2022/09/12 09:01:31;;;;;;;;;9.00;9.00;;;;;19.99;61.24;100591.00;5097381;27;45425;-60
2022/09/12 09:04:16;;;;;;;;;30.00;28.33;;;;;20.02;60.89;100580.09;5097742;27;45468;-60
2022/09/12 09:06:55;;;;;;;;;10.00;10.00;;;;;20.08;60.25;100579.63;5079190;27;45410;-61
2022/09/12 09:09:42;;;;;;;;;7.50;7.00;;;;;20.10;60.37;100579.53;5097005;27;45484;-60
2022/09/12 09:12:31;;;;;;;;;8.00;8.00;;;;;20.15;60.08;100574.66;5097403;27;45357;-60
2022/09/12 09:15:32;;;;;;;;;8.75;8.75;;;;;20.19;59.99;100574.31;5097636;27;45481;-60
2022/09/12 09:18:18;;;;;;;;;9.50;9.50;;;;;20.23;60.07;100572.25;5097453;27;45382;-60
2022/09/12 09:21:05;;;;;;;;;11.00;11.00;;;;;20.26;59.83;100562.19;5097197;27;46484;-60
2022/09/12 09:23:43;;;;;;;;;8.50;7.25;;;;;20.30;59.24;100560.97;5097528;27;45510;-60
2022/09/12 09:26:25;;;;;;;;;8.00;8.00;;;;;20.35;58.80;100555.28;5097672;27;45418;-60
2022/09/12 09:29:04;;;;;;;;;9.50;7.00;;;;;20.35;58.99;100552.63;5097312;27;45494;-60
2022/09/12 09:31:36;;;;;;;;;19.33;18.33;;;;;20.41;58.65;100561.97;5078537;27;45857;-60
2022/09/12 09:34:12;;;;;;;;;10.00;9.00;;;;;20.45;58.66;100561.63;5096622;27;45553;-60
2022/09/12 09:36:57;;;;;;;;;12.75;11.00;;;;;20.49;59.01;100560.41;5098024;27;45422;-60
2022/09/12 09:39:50;;;;;;;;;10.00;9.00;;;;;20.55;58.55;100547.56;5097114;27;45549;-60
2022/09/12 09:42:36;;;;;;;;;9.75;9.75;;;;;20.58;58.77;100539.31;5078584;27;46178;-60
2022/09/12 09:45:13;;;;;;;;;8.25;7.75;;;;;20.55;57.64;100528.88;5096554;27;45530;-60
2022/09/12 09:47:38;;;;;;;;;6.50;6.00;;;;;20.67;58.10;100547.47;5097078;27;45454;-60
2022/09/12 09:50:05;;;;;;;;;4.50;4.50;;;;;20.69;57.66;100544.69;5096874;27;45623;-61
2022/09/12 09:52:31;;;;;;;;;7.50;7.50;;;;;20.70;57.45;100536.53;5078371;27;46997;-60
2022/09/12 09:54:59;;;;;;;;;7.00;7.00;;;;;20.78;57.14;100538.63;5097029;27;45410;-60
2022/09/12 09:57:34;;;;;;;;;7.50;7.50;;;;;20.64;57.00;100504.13;5097123;27;45392;-60
2022/09/12 10:00:25;;;;;;;;;10.50;10.50;;;;;20.89;57.20;100537.75;5096814;27;45520;-60
2022/09/12 10:03:08;;;;;;;;;6.25;6.25;;;;;20.96;56.71;100537.16;5083212;27;45944;-60
2022/09/12 10:05:51;;;;;;;;;6.25;5.00;;;;;20.94;56.60;100524.88;5096669;27;45508;-60
2022/09/12 10:08:31;;;;;;;;;6.00;6.00;;;;;21.13;56.78;100532.28;5096495;27;45668;-61
2022/09/12 10:11:01;;;;;;;;;9.75;6.00;;;;;21.29;56.92;100522.03;5096377;27;45389;-60
2022/09/12 10:13:33;;;;;;;;;4.50;4.50;;;;;21.37;56.28;100511.56;5096161;27;45965;-60
2022/09/12 10:16:01;;;;;;;;;4.25;4.25;;;;;21.60;55.60;100522.19;5096269;27;45394;-60
2022/09/12 10:18:42;;;;;;;;;6.00;6.00;;;;;21.60;55.43;100506.13;5096306;27;45479;-60
2022/09/12 10:21:17;;;;;;;;;8.25;6.75;;;;;21.72;54.63;100515.84;5096228;27;45403;-60
2022/09/12 10:23:44;;;;;;;;;6.00;6.00;;;;;21.76;55.59;100509.28;5096062;27;46207;-60
2022/09/12 10:26:14;;;;;;;;;6.50;5.50;;;;;21.79;54.79;100508.16;5095924;27;45442;-60
2022/09/12 10:28:44;;;;;;;;;4.00;4.00;;;;;21.67;54.94;100487.75;5077290;27;45511;-60
2022/09/12 10:31:15;;;;;;;;;4.00;4.00;;;;;21.75;55.02;100499.50;5095848;27;45385;-60
2022/09/12 10:33:51;;;;;;;;;5.00;5.00;;;;;21.74;54.70;100497.84;5095653;27;46124;-60
2022/09/12 10:36:18;;;;;;;;;8.25;6.50;;;;;21.69;54.90;100494.69;5095613;27;45364;-60
2022/09/12 10:38:52;;;;;;;;;4.00;4.00;;;;;21.78;55.02;100515.31;5096651;27;45412;-60
2022/09/12 10:41:20;;;;;;;;;5.50;5.50;;;;;21.69;54.88;100491.16;5077278;27;45541;-60
2022/09/12 10:43:46;;;;;;;;;5.00;5.00;;;;;21.69;55.07;100493.84;5095172;27;46275;-61
2022/09/12 10:46:18;;;;;;;;;5.00;5.00;;;;;21.73;54.75;100506.81;5095671;27;45692;-60
2022/09/12 10:48:55;;;;;;;;;5.50;4.75;;;;;21.72;54.52;100505.13;5095584;27;45249;-60
2022/09/12 10:51:24;;;;;;;;;4.50;4.50;;;;;21.80;53.94;100508.00;5095348;27;45489;-60
2022/09/12 10:53:52;;;;;;;;;4.50;4.50;;;;;21.84;53.48;100501.44;5095265;27;46338;-61
2022/09/12 10:56:21;;;;;;;;;3.75;3.75;;;;;21.84;53.46;100489.84;5095249;27;45457;-60
2022/09/12 10:59:10;;;;;;;;;2.50;2.50;;;;;21.92;53.05;100494.56;5095649;27;45457;-60
2022/09/12 11:01:47;;;;;;;;;2.25;2.25;;;;;21.96;53.69;100490.66;5095342;27;45451;-60
2022/09/12 11:04:33;;;;;;;;;3.00;3.00;;;;;21.98;53.73;100494.91;5095213;27;46235;-60
2022/09/12 11:07:13;;;;;;;;;4.25;4.25;;;;;21.96;53.85;100490.66;5095158;27;45354;-60
2022/09/12 11:10:02;;;;;;;;;3.00;3.00;;;;;22.07;53.30;100490.59;5076800;27;45538;-60
2022/09/12 11:12:41;;;;;;;;;5.00;4.00;;;;;22.12;53.41;100499.09;5095470;27;45459;-60
2022/09/12 11:15:22;;;;;;;;;4.00;4.00;;;;;22.19;53.60;100508.34;5094780;27;46643;-60
2022/09/12 11:17:59;;;;;;;;;3.50;3.50;;;;;22.25;53.03;100510.47;5094261;27;45433;-63
2022/09/12 11:20:43;;;;;;;;;3.50;3.50;;;;;22.14;52.67;100481.06;5077576;27;45335;-61
2022/09/12 11:23:20;;;;;;;;;4.25;4.25;;;;;22.37;52.59;100500.53;5095775;27;45473;-58
2022/09/12 11:26:01;;;;;;;;;54.00;45.33;;;;;22.40;52.13;100496.72;5095239;27;45598;-58
2022/09/12 11:28:29;;;;;;;;;56.00;44.67;;;;;22.40;52.62;100491.38;5074696;28;45446;-58
2022/09/12 11:31:23;;;;;;;;;23.33;22.33;;;;;22.43;52.58;100481.25;5079923;27;45365;-58
2022/09/12 11:33:51;;;;;;;;;20.67;19.67;;;;;22.44;52.78;100482.94;5077287;27;45325;-58
2022/09/12 11:36:35;;;;;;;;;22.33;19.67;;;;;22.45;52.39;100473.91;5095082;27;45683;-58
2022/09/12 11:39:10;;;;;;;;;5.25;5.00;;;;;22.44;51.11;100458.81;5095069;27;45456;-59
2022/09/12 11:41:40;;;;;;;;;4.00;4.00;;;;;22.52;50.04;100458.16;5094675;27;45379;-59
2022/09/12 11:44:17;;;;;;;;;5.00;5.00;;;;;22.58;49.94;100468.31;5095432;27;45532;-59
2022/09/12 11:46:43;;;;;;;;;5.50;5.00;;;;;22.64;50.05;100466.94;5095456;27;46585;-58
2022/09/12 11:49:11;;;;;;;;;4.00;4.00;;;;;22.66;50.53;100456.94;5094741;27;45438;-58
2022/09/12 11:51:55;;;;;;;;;3.50;3.50;;;;;22.74;49.85;100453.59;5095623;27;45398;-58
2022/09/12 11:54:38;;;;;;;;;2.00;2.00;;;;;22.81;49.65;100457.38;5095503;27;45388;-58
2022/09/12 11:57:48;;;;;;;;;3.50;3.00;;;;;22.90;50.19;100445.84;5097996;27;46297;-59
2022/09/12 12:00:16;;;;;;;;;2.00;2.00;;;;;23.02;49.32;100442.09;5073566;28;45407;-58
2022/09/12 12:03:05;;;;;;;;;7.50;6.00;;;;;23.17;48.10;100447.06;5078544;28;45485;-58
2022/09/12 12:05:53;;;;;;;;;2.00;2.00;;;;;23.33;48.50;100448.22;5078677;28;45392;-58
2022/09/12 12:08:21;;;;;;;;;5.00;5.00;;;;;23.51;48.69;100455.59;5086408;27;47206;-58
2022/09/12 12:10:55;;;;;;;;;7.75;7.75;;;;;23.71;47.99;100448.34;5098131;27;45458;-59
2022/09/12 12:13:42;;;;;;;;;4.50;3.50;;;;;23.89;47.35;100438.59;5097597;27;45438;-61
2022/09/12 12:16:25;;;;;;;;;2.50;2.50;;;;;24.06;47.20;100422.72;5097952;27;45472;-60
2022/09/12 12:18:57;;;;;;;;;4.00;4.00;;;;;24.25;46.74;100436.94;5098228;27;45483;-60
2022/09/12 12:21:48;;;;;;;;;4.20;4.20;;;;;24.36;46.83;100440.44;5098427;27;45431;-60
2022/09/12 12:24:21;;;;;;;;;4.50;4.50;;;;;24.49;46.79;100437.47;5098268;27;45405;-60
2022/09/12 12:26:51;;;;;;;;;6.75;4.75;;;;;24.59;46.40;100446.34;5098560;27;45430;-61
2022/09/12 12:29:16;;;;;;;;;2.75;2.75;;;;;24.65;45.92;100451.13;5079831;27;47698;-60
2022/09/12 12:32:02;;;;;;;;;2.00;2.00;;;;;24.74;46.27;100452.06;5098269;27;45407;-60
2022/09/12 12:34:36;;;;;;;;;2.80;2.80;;;;;24.80;45.91;100454.16;5098410;27;45434;-60
2022/09/12 12:37:24;;;;;;;;;4.75;3.00;;;;;24.82;45.58;100444.91;5099011;27;45512;-61
2022/09/12 12:39:54;;;;;;;;;2.20;2.20;;;;;24.90;44.93;100445.03;5079532;27;47884;-60
2022/09/12 12:42:34;;;;;;;;;2.40;2.40;;;;;25.00;45.13;100444.13;5097984;27;45450;-60
2022/09/12 12:45:22;;;;;;;;;2.40;2.40;;;;;25.08;44.95;100446.91;5097900;27;45437;-60
2022/09/12 12:47:52;;;;;;;;;2.50;2.50;;;;;25.14;44.85;100449.81;5097758;27;45496;-60
2022/09/12 12:50:22;;;;;;;;;2.00;2.00;;;;;25.23;44.72;100442.72;5097525;27;45437;-60
2022/09/12 12:53:16;;;;;;;;;3.00;2.00;;;;;25.26;44.63;100425.44;5098037;27;45336;-60
2022/09/12 12:55:42;;;;;;;;;2.00;2.00;;;;;25.45;45.03;100436.03;5098014;27;45454;-60
2022/09/12 12:58:25;;;;;;;;;5.25;5.25;;;;;25.51;44.47;100438.09;5098036;27;45308;-60
2022/09/12 13:01:18;;;;;;;;;3.20;3.20;;;;;25.64;44.31;100444.94;5097063;27;45453;-60
2022/09/12 13:03:53;;;;;;;;;2.80;2.80;;;;;25.71;43.64;100433.41;5094101;27;45418;-60
2022/09/12 13:06:28;;;;;;;;;3.00;3.00;;;;;25.81;42.51;100433.28;5079202;27;45444;-59
2022/09/12 13:09:00;;;;;;;;;6.75;6.75;;;;;25.83;43.23;100414.28;5097565;27;45386;-61
2022/09/12 13:11:44;;;;;;;;;7.00;7.00;;;;;25.97;42.96;100427.19;5078269;27;45520;-59
2022/09/12 13:14:41;;;;;;;;;3.60;3.60;;;;;26.07;42.87;100427.09;5097414;27;45500;-59
2022/09/12 13:17:13;;;;;;;;;2.80;2.80;;;;;26.20;42.69;100417.56;5097431;27;45445;-59
2022/09/12 13:19:40;;;;;;;;;2.00;2.00;;;;;26.28;41.91;100414.09;5097238;27;45428;-59
2022/09/12 13:22:08;;;;;;;;;3.00;3.00;;;;;26.38;42.11;100416.63;5078596;27;46196;-59
2022/09/12 13:24:44;;;;;;;;;2.40;2.40;;;;;26.48;42.14;100420.06;5097070;27;45551;-59
2022/09/12 13:27:21;;;;;;;;;2.20;2.20;;;;;26.55;42.24;100420.31;5097491;27;45367;-59
2022/09/12 13:29:47;;;;;;;;;2.80;2.80;;;;;26.70;42.06;100415.13;5096993;27;45379;-59
2022/09/12 13:32:14;;;;;;;;;2.00;2.00;;;;;26.79;41.60;100406.91;5097000;27;46401;-59
2022/09/12 13:35:01;;;;;;;;;1.80;1.80;;;;;26.88;41.24;100403.19;5097010;27;45394;-59
2022/09/12 13:37:47;;;;;;;;;2.00;2.00;;;;;26.99;41.16;100380.44;5097810;27;45446;-59
2022/09/12 13:40:47;;;;;;;;;2.20;2.20;;;;;27.16;40.90;100381.31;5097185;27;45461;-59
2022/09/12 13:43:16;;;;;;;;;2.20;2.00;;;;;27.23;39.98;100362.63;5097206;27;45470;-60
2022/09/12 13:45:45;;;;;;;;;4.20;2.80;;;;;27.41;40.91;100371.41;5096345;27;45470;-60
2022/09/12 13:48:24;;;;;;;;;2.80;1.60;;;;;27.57;40.30;100378.66;5096843;27;45519;-60
2022/09/12 13:51:04;;;;;;;;;1.80;1.80;;;;;27.63;39.91;100379.84;5096830;27;45526;-60
2022/09/12 13:53:45;;;;;;;;;3.00;3.00;;;;;27.77;39.46;100373.72;5096806;27;46942;-60
2022/09/12 13:56:19;;;;;;;;;1.00;1.00;;;;;27.92;38.92;100373.91;5096825;27;45492;-59
2022/09/12 13:59:11;;;;;;;;;2.40;1.60;;;;;28.10;38.64;100369.13;5097082;27;45389;-60
2022/09/12 14:01:39;;;;;;;;;2.00;2.00;;;;;28.08;37.93;100367.63;5092587;27;45484;-60
2022/09/12 14:07:17;;;;;;;;;2.00;2.00;;;;;27.52;38.10;100357.56;5096952;27;45613;-59
2022/09/12 14:09:46;;;;;;;;;5.80;5.80;;;;;27.31;38.86;100355.38;5094331;27;45410;-59
2022/09/12 14:12:33;;;;;;;;;2.00;2.00;;;;;27.00;39.63;100330.88;5096678;27;45604;-58
2022/09/12 14:14:59;;;;;;;;;2.00;2.00;;;;;26.87;39.91;100336.75;5096405;27;45516;-59
2022/09/12 14:17:35;;;;;;;;;2.40;2.40;;;;;26.69;40.11;100327.94;5096178;27;45489;-59
2022/09/12 14:20:22;;;;;;;;;2.00;2.00;;;;;26.49;40.90;100315.72;5095806;27;45374;-58
2022/09/12 14:22:49;;;;;;;;;2.00;2.00;;;;;26.31;40.75;100308.59;5096306;27;45449;-59
2022/09/12 14:25:40;;;;;;;;;3.00;3.00;;;;;26.16;41.04;100308.38;5095793;27;45533;-60
2022/09/12 14:28:09;;;;;;;;;3.00;2.00;;;;;26.05;40.45;100303.28;5084810;27;45543;-60
2022/09/12 14:30:36;;;;;;;;;2.80;1.60;;;;;25.94;41.02;100298.16;5096149;27;45460;-59
2022/09/12 14:33:11;;;;;;;;;2.00;2.00;;;;;25.85;40.40;100291.06;5078249;27;45319;-59
2022/09/12 14:35:38;;;;;;;;;3.00;3.00;;;;;25.75;40.92;100291.97;5096069;27;45519;-59
2022/09/12 14:38:19;;;;;;;;;2.00;2.00;;;;;25.56;40.95;100271.50;5096830;27;45532;-59
2022/09/12 14:40:58;;;;;;;;;2.00;2.00;;;;;25.59;41.37;100293.75;5096319;27;45457;-59
2022/09/12 14:43:27;;;;;;;;;1.00;1.00;;;;;25.52;41.15;100283.63;5096373;27;45493;-59
2022/09/12 14:46:02;;;;;;;;;1.60;1.60;;;;;25.46;41.24;100280.69;5096009;27;45529;-59
2022/09/12 14:48:32;;;;;;;;;2.00;2.00;;;;;25.43;41.61;100286.41;5096200;27;45468;-59
2022/09/12 14:50:58;;;;;;;;;1.00;1.00;;;;;25.39;42.04;100279.63;5095964;27;45414;-59
2022/09/12 14:53:35;;;;;;;;;1.25;1.25;;;;;25.34;42.17;100274.75;5077692;27;45355;-59
2022/09/12 14:56:11;;;;;;;;;2.20;2.20;;;;;25.30;42.59;100276.03;5095827;27;46066;-60
2022/09/12 14:58:41;;;;;;;;;4.00;4.00;;;;;25.27;42.39;100277.19;5096000;27;45568;-59
2022/09/12 15:01:06;;;;;;;;;5.60;4.00;;;;;25.25;43.12;100276.50;5095871;27;45377;-59
2022/09/12 15:03:44;;;;;;;;;1.00;1.00;;;;;25.23;42.81;100280.38;5096004;27;45390;-59
2022/09/12 15:06:30;;;;;;;;;1.20;1.20;;;;;25.20;42.76;100268.09;5095611;27;45437;-60
2022/09/12 15:09:10;;;;;;;;;2.60;2.20;;;;;25.19;42.56;100265.53;5077382;27;45434;-59
2022/09/12 15:11:36;;;;;;;;;1.00;1.00;;;;;25.12;43.39;100259.91;5095956;27;45304;-59
2022/09/12 15:14:27;;;;;;;;;1.00;1.00;;;;;25.06;43.64;100252.44;5095645;27;45662;-60
2022/09/12 15:16:52;;;;;;;;;1.60;1.60;;;;;25.03;43.76;100240.16;5090787;27;45493;-59
2022/09/12 15:19:18;;;;;;;;;3.50;1.00;;;;;24.98;43.80;100238.94;5077251;27;45452;-59
2022/09/12 15:21:43;;;;;;;;;1.50;1.50;;;;;24.94;43.11;100241.09;5095445;27;50826;-59
2022/09/12 15:24:08;;;;;;;;;2.00;2.00;;;;;24.98;43.06;100241.63;5095736;27;45432;-59
2022/09/12 15:26:34;;;;;;;;;2.75;2.75;;;;;24.94;42.96;100241.09;5095350;27;46249;-59
2022/09/12 15:28:59;;;;;;;;;2.00;2.00;;;;;25.00;42.60;100243.16;5095237;27;45371;-59
2022/09/12 15:31:27;;;;;;;;;2.75;2.00;;;;;24.98;42.78;100239.78;5097663;27;45440;-60
2022/09/12 15:33:53;;;;;;;;;1.80;1.80;;;;;24.97;42.08;100246.16;5099072;27;45564;-60
2022/09/12 15:36:21;;;;;;;;;1.60;0.80;;;;;24.95;42.34;100250.84;5099185;27;45327;-60
2022/09/12 15:38:48;;;;;;;;;1.80;1.80;;;;;24.92;41.93;100243.94;5099416;27;45468;-60
2022/09/12 15:41:19;;;;;;;;;0.80;0.80;;;;;24.92;41.61;100243.94;5099209;27;45397;-60
2022/09/12 15:43:45;;;;;;;;;2.00;2.00;;;;;24.90;41.38;100231.63;5099025;27;45394;-60
2022/09/12 15:46:12;;;;;;;;;1.00;1.00;;;;;24.93;41.93;100239.38;5080263;27;45984;-60
2022/09/12 15:48:38;;;;;;;;;3.00;2.00;;;;;24.93;41.65;100239.38;5080505;27;45781;-59
2022/09/12 15:51:04;;;;;;;;;1.00;1.00;;;;;24.89;41.54;100228.09;5098884;27;45410;-59
2022/09/12 15:53:30;;;;;;;;;2.00;2.00;;;;;24.92;42.16;100235.84;5099024;27;45353;-60
2022/09/12 15:55:56;;;;;;;;;3.60;2.60;;;;;24.84;41.93;100230.41;5098707;27;45443;-59
2022/09/12 15:58:21;;;;;;;;;1.00;1.00;;;;;24.91;41.57;100239.56;5098929;27;45463;-59
2022/09/12 16:00:47;;;;;;;;;1.00;1.00;;;;;24.95;41.77;100239.25;5099099;27;45604;-59
2022/09/12 16:03:21;;;;;;;;;1.00;1.00;;;;;24.94;42.08;100233.03;5098687;27;45645;-59
2022/09/12 16:05:46;;;;;;;;;10.00;10.00;;;;;24.88;42.17;100228.28;5098469;27;45970;-59
2022/09/12 16:08:12;;;;;;;;;1.00;1.00;;;;;24.89;42.00;100233.50;5080213;27;45532;-59
2022/09/12 16:10:37;;;;;;;;;1.50;1.50;;;;;24.94;41.72;100230.34;5098201;27;45443;-59
2022/09/12 16:13:03;;;;;;;;;1.00;1.00;;;;;24.88;41.91;100220.22;5098565;27;45605;-60
2022/09/12 16:15:28;;;;;;;;;2.00;2.00;;;;;24.92;41.79;100226.94;5098271;27;45972;-61
2022/09/12 16:17:54;;;;;;;;;2.50;1.50;;;;;24.90;42.12;100224.44;5098263;27;45459;-59
2022/09/12 16:20:21;;;;;;;;;2.00;2.00;;;;;24.89;41.97;100225.41;5098721;27;45860;-59
2022/09/12 16:22:46;;;;;;;;;0.80;0.80;;;;;24.88;42.28;100221.06;5098642;27;45504;-59
2022/09/12 16:25:12;;;;;;;;;11.75;11.75;;;;;24.85;42.41;100215.13;5098120;27;45541;-59
2022/09/12 16:27:38;;;;;;;;;1.00;1.00;;;;;24.82;42.40;100202.81;5098388;27;45460;-59
2022/09/12 16:30:06;;;;;;;;;3.75;2.50;;;;;24.85;41.90;100199.84;5098179;27;45399;-59
2022/09/12 16:32:31;;;;;;;;;1.25;1.25;;;;;24.81;42.26;100186.84;5098070;27;45377;-59
2022/09/12 16:34:56;;;;;;;;;3.00;2.00;;;;;24.87;41.77;100200.50;5098291;27;45434;-59
2022/09/12 16:37:22;;;;;;;;;1.50;1.50;;;;;24.90;41.49;100197.53;5098056;27;45414;-59
2022/09/12 16:39:48;;;;;;;;;1.00;1.00;;;;;24.92;41.38;100200.88;5098867;27;45373;-59
2022/09/12 16:42:16;;;;;;;;;1.00;1.00;;;;;24.94;41.53;100200.75;5097883;27;45376;-59
2022/09/12 16:44:42;;;;;;;;;2.20;1.20;;;;;24.91;41.49;100193.81;5098005;27;45554;-60
2022/09/12 16:47:07;;;;;;;;;1.00;1.00;;;;;24.96;41.13;100205.94;5098005;27;45528;-59
2022/09/12 16:49:33;;;;;;;;;1.00;1.00;;;;;24.97;41.54;100197.72;5097912;27;45437;-59
2022/09/12 16:51:58;;;;;;;;;0.50;0.50;;;;;25.00;41.20;100199.25;5098118;27;45413;-59
2022/09/12 16:54:24;;;;;;;;;2.00;2.00;;;;;25.01;41.16;100193.75;5097884;27;45399;-59
2022/09/12 16:56:49;;;;;;;;;2.25;2.25;;;;;25.05;41.03;100199.63;5098016;27;45455;-59
2022/09/12 16:59:15;;;;;;;;;1.00;1.00;;;;;25.05;40.82;100191.56;5098094;27;45444;-59
2022/09/12 17:01:41;;;;;;;;;1.00;1.00;;;;;25.03;41.02;100196.25;5079508;27;45413;-59
2022/09/12 17:04:08;;;;;;;;;1.50;1.50;;;;;25.03;41.18;100194.41;5097457;27;45436;-58
2022/09/12 17:06:34;;;;;;;;;3.00;2.00;;;;;24.99;41.35;100192.22;5097406;27;45497;-58
2022/09/12 17:09:02;;;;;;;;;3.25;2.00;;;;;24.95;41.58;100193.50;5097429;27;45466;-59
2022/09/12 17:11:37;;;;;;;;;2.00;2.00;;;;;24.92;41.79;100189.28;5097603;27;45401;-59
2022/09/12 17:14:05;;;;;;;;;2.00;2.00;;;;;24.87;41.64;100180.84;5097437;27;46533;-59
2022/09/12 17:16:34;;;;;;;;;2.00;2.00;;;;;24.84;41.66;100178.47;5097616;27;45414;-59
2022/09/12 17:18:59;;;;;;;;;1.00;1.00;;;;;24.79;41.74;100170.03;5097902;27;45475;-59
2022/09/12 17:21:24;;;;;;;;;1.50;1.50;;;;;24.77;42.15;100161.25;5097816;27;45308;-59
2022/09/12 17:23:50;;;;;;;;;1.00;1.00;;;;;24.72;42.11;100163.56;5097454;27;45375;-60
2022/09/12 17:26:16;;;;;;;;;3.00;2.00;;;;;24.45;42.14;100125.06;5097524;27;45455;-59
2022/09/12 17:28:42;;;;;;;;;4.00;3.00;;;;;24.52;42.81;100147.63;5097720;27;45386;-59
2022/09/12 17:31:10;;;;;;;;;2.00;2.00;;;;;24.52;42.57;100152.16;5078653;27;45514;-59
2022/09/12 17:33:36;;;;;;;;;13.50;12.50;;;;;24.54;42.56;100163.63;5097351;27;46039;-60
2022/09/12 17:36:07;;;;;;;;;3.25;3.25;;;;;24.51;42.52;100185.44;5097384;27;45470;-60
2022/09/12 17:38:34;;;;;;;;;2.00;2.00;;;;;24.49;42.96;100184.75;5097055;27;45518;-59
2022/09/12 17:41:24;;;;;;;;;3.00;3.00;;;;;24.44;43.10;100174.44;5097211;27;45640;-59
2022/09/12 17:43:53;;;;;;;;;2.80;2.20;;;;;24.38;43.40;100169.66;5096551;27;46083;-59
2022/09/12 17:46:19;;;;;;;;;4.00;4.00;;;;;24.31;43.58;100164.03;5097042;27;45533;-59
2022/09/12 17:48:50;;;;;;;;;4.00;4.00;;;;;24.33;43.78;100172.78;5097183;27;45368;-59
2022/09/12 17:51:16;;;;;;;;;3.50;3.50;;;;;24.31;43.88;100174.78;5097197;27;45551;-59
2022/09/12 17:53:42;;;;;;;;;3.75;3.75;;;;;24.22;44.47;100156.91;5096012;27;45964;-60
2022/09/12 17:56:08;;;;;;;;;4.00;4.00;;;;;24.19;44.50;100158.06;5097076;27;45441;-59
2022/09/12 17:58:34;;;;;;;;;4.60;4.00;;;;;24.21;44.72;100166.81;5096871;27;45371;-59
2022/09/12 18:03:45;;;;;;;;;5.25;4.25;;;;;24.07;44.79;100155.75;5096802;27;45912;-60
2022/09/12 18:06:10;;;;;;;;;3.50;3.50;;;;;24.14;45.11;100168.41;5096273;27;45374;-60
2022/09/12 18:08:36;;;;;;;;;5.00;4.00;;;;;24.12;45.58;100166.88;5077383;27;45395;-59
2022/09/12 18:11:04;;;;;;;;;4.25;4.25;;;;;24.10;45.64;100175.09;5076638;28;45449;-60
2022/09/12 18:13:33;;;;;;;;;5.00;5.00;;;;;24.04;45.60;100162.25;5076713;28;46220;-61
2022/09/12 18:16:07;;;;;;;;;4.80;3.60;;;;;23.99;46.04;100143.94;5075997;28;45431;-59
2022/09/12 18:18:33;;;;;;;;;7.00;6.00;;;;;23.98;45.79;100139.53;5076174;28;45454;-61
2022/09/12 18:20:59;;;;;;;;;8.75;8.75;;;;;23.92;45.72;100142.00;5075282;28;45482;-61
2022/09/12 18:23:26;;;;;;;;;20.67;20.67;;;;;23.92;46.18;100150.91;5075619;28;46114;-61
2022/09/12 18:26:05;;;;;;;;;16.25;15.00;;;;;23.90;46.55;100157.41;5075835;28;45393;-60
2022/09/12 18:28:33;;;;;;;;;12.50;11.00;;;;;23.89;46.37;100150.38;5076007;28;45377;-59
2022/09/12 18:30:59;;;;;;;;;23.33;21.33;;;;;23.81;46.58;100149.28;5075906;28;45426;-60
2022/09/12 18:33:24;;;;;;;;;16.50;15.25;;;;;23.83;46.70;100153.63;5075223;28;45380;-59
2022/09/12 18:35:49;;;;;;;;;42.33;37.67;;;;;23.81;46.80;100151.94;5075467;28;45300;-61
2022/09/12 18:38:15;;;;;;;;;34.67;33.33;;;;;23.72;47.00;100135.88;5076031;28;45561;-60
2022/09/12 18:40:40;;;;;;;;;23.33;22.67;;;;;23.73;47.26;100141.13;5075131;28;45631;-60
2022/09/12 18:43:06;;;;;;;;;20.67;19.33;;;;;23.74;47.37;100140.13;5075425;28;45332;-58
2022/09/12 18:45:32;;;;;;;;;19.50;19.50;;;;;23.72;47.25;100144.81;5075277;28;45375;-60
2022/09/12 18:47:58;;;;;;;;;48.67;40.67;;;;;23.69;47.41;100149.59;5075564;28;45447;-59
2022/09/12 18:50:24;;;;;;;;;23.67;23.67;;;;;23.73;47.54;100153.72;5075427;28;45644;-60
2022/09/12 18:52:53;;;;;;;;;9.00;8.50;;;;;23.71;47.68;100155.66;5075482;28;45969;-59
2022/09/12 18:55:19;;;;;;;;;9.50;9.50;;;;;23.65;47.61;100151.72;5075591;28;45427;-60
2022/09/12 18:57:45;;;;;;;;;11.00;9.25;;;;;23.65;48.15;100161.63;5075834;28;45557;-61
2022/09/12 19:00:12;;;;;;;;;13.00;11.50;;;;;23.61;48.41;100155.69;5075032;28;45620;-60